createdAt,value
2023-04-19T00:01:56.054Z,55.90
2023-04-19T00:04:22.778Z,55.90
2023-04-19T00:06:49.562Z,56.10
2023-04-19T00:09:16.016Z,55.90
2023-04-19T00:11:42.490Z,55.80
2023-04-19T00:14:08.978Z,55.90
2023-04-19T00:16:35.469Z,56.00
2023-04-19T00:19:02.031Z,56.10
2023-04-19T00:21:28.527Z,56.10
2023-04-19T00:23:54.989Z,56.20
2023-04-19T00:26:21.459Z,56.30
2023-04-19T00:28:47.918Z,56.30
2023-04-19T00:31:14.382Z,56.30
2023-04-19T00:33:40.856Z,56.50
2023-04-19T00:36:07.509Z,56.40
2023-04-19T00:38:33.982Z,56.30
2023-04-19T00:41:00.468Z,56.30
2023-04-19T00:43:26.945Z,56.30
2023-04-19T00:45:53.446Z,56.30
2023-04-19T00:48:19.953Z,56.30
2023-04-19T00:50:46.417Z,56.40
2023-04-19T00:53:12.885Z,56.40
2023-04-19T00:55:39.344Z,56.50
2023-04-19T00:58:05.820Z,56.40
2023-04-19T01:00:32.273Z,56.50
2023-04-19T01:02:58.901Z,56.40
2023-04-19T01:05:25.544Z,56.50
2023-04-19T01:07:52.008Z,56.60
2023-04-19T01:10:18.465Z,56.60
2023-04-19T01:12:44.922Z,56.50
2023-04-19T01:15:11.386Z,56.50
2023-04-19T01:17:37.886Z,56.50
2023-04-19T01:20:04.455Z,56.50
2023-04-19T01:22:30.944Z,56.50
2023-04-19T01:24:57.424Z,56.50
2023-04-19T01:27:23.877Z,56.50
2023-04-19T01:29:50.337Z,56.60
2023-04-19T01:32:16.801Z,56.50
2023-04-19T01:34:43.280Z,56.40
2023-04-19T01:37:09.772Z,56.40
2023-04-19T01:39:36.250Z,56.50
2023-04-19T01:42:02.712Z,56.50
2023-04-19T01:44:29.193Z,56.40
2023-04-19T01:46:55.704Z,56.40
2023-04-19T01:49:22.253Z,56.50
2023-04-19T01:51:48.726Z,56.50
2023-04-19T01:54:15.320Z,56.50
2023-04-19T01:56:41.908Z,56.60
2023-04-19T01:59:08.365Z,56.60
2023-04-19T02:01:34.825Z,56.50
2023-04-19T02:04:01.358Z,56.50
2023-04-19T02:06:27.902Z,56.50
2023-04-19T02:08:54.385Z,56.60
2023-04-19T02:11:20.846Z,56.60
2023-04-19T02:13:47.363Z,56.50
2023-04-19T02:16:13.895Z,56.60
2023-04-19T02:18:40.396Z,56.60
2023-04-19T02:21:06.874Z,56.60
2023-04-19T02:23:33.337Z,56.60
2023-04-19T02:25:59.811Z,56.60
2023-04-19T02:28:26.305Z,56.70
2023-04-19T02:30:52.807Z,56.60
2023-04-19T02:33:19.293Z,56.60
2023-04-19T02:35:45.769Z,56.60
2023-04-19T02:38:12.259Z,56.70
2023-04-19T02:40:38.730Z,56.70
2023-04-19T02:43:05.230Z,56.70
2023-04-19T02:45:31.705Z,56.80
2023-04-19T02:47:58.243Z,56.80
2023-04-19T02:50:24.760Z,56.80
2023-04-19T02:52:51.215Z,56.70
2023-04-19T02:55:17.690Z,56.70
2023-04-19T02:57:44.148Z,56.70
2023-04-19T03:00:10.633Z,56.60
2023-04-19T03:02:37.189Z,56.60
2023-04-19T03:05:03.717Z,56.60
2023-04-19T03:07:30.184Z,56.50
2023-04-19T03:09:56.654Z,56.70
2023-04-19T03:12:23.136Z,56.70
2023-04-19T03:14:49.612Z,56.70
2023-04-19T03:17:16.082Z,56.60
2023-04-19T03:19:42.558Z,56.60
2023-04-19T03:22:09.018Z,56.70
2023-04-19T03:24:37.620Z,56.70
2023-04-19T03:27:04.517Z,56.60
2023-04-19T03:29:30.985Z,56.80
2023-04-19T03:31:57.452Z,56.90
2023-04-19T03:34:23.933Z,56.70
2023-04-19T03:36:50.405Z,56.80
2023-04-19T03:39:16.891Z,56.70
2023-04-19T03:41:43.364Z,56.60
2023-04-19T03:44:09.834Z,56.50
2023-04-19T03:46:36.320Z,56.50
2023-04-19T03:49:02.837Z,56.50
2023-04-19T03:51:29.302Z,56.40
2023-04-19T03:53:55.790Z,56.40
2023-04-19T03:56:22.256Z,56.40
2023-04-19T03:58:48.722Z,56.50
2023-04-19T04:01:15.204Z,56.40
2023-04-19T04:03:42.117Z,56.30
2023-04-19T04:06:08.677Z,56.20
2023-04-19T04:08:35.137Z,56.20
2023-04-19T04:11:01.612Z,56.30
2023-04-19T04:13:28.093Z,56.30
2023-04-19T04:15:54.625Z,56.30
2023-04-19T04:18:21.104Z,56.20
2023-04-19T04:20:47.603Z,56.30
2023-04-19T04:23:14.072Z,56.10
2023-04-19T04:25:40.547Z,56.20
2023-04-19T04:28:07.007Z,56.10
2023-04-19T04:30:33.486Z,56.20
2023-04-19T04:32:59.989Z,56.30
2023-04-19T04:35:26.487Z,56.20
2023-04-19T04:37:52.956Z,56.20
2023-04-19T04:40:19.452Z,56.20
2023-04-19T04:42:45.937Z,56.10
2023-04-19T04:45:12.415Z,56.10
2023-04-19T04:47:38.920Z,56.10
2023-04-19T04:50:05.424Z,56.10
2023-04-19T04:52:31.895Z,55.90
2023-04-19T04:54:58.389Z,55.90
2023-04-19T04:57:24.862Z,55.90
2023-04-19T04:59:51.356Z,55.90
2023-04-19T05:02:17.904Z,55.80
2023-04-19T05:04:44.546Z,55.80
2023-04-19T05:07:11.087Z,55.80
2023-04-19T05:09:37.565Z,55.70
2023-04-19T05:12:04.068Z,55.70
2023-04-19T05:14:30.557Z,55.50
2023-04-19T05:16:57.028Z,55.60
2023-04-19T05:19:23.506Z,55.50
2023-04-19T05:21:49.976Z,55.50
2023-04-19T05:24:16.660Z,55.50
2023-04-19T05:26:43.251Z,55.60
2023-04-19T05:29:09.772Z,55.30
2023-04-19T05:31:36.308Z,55.50
2023-04-19T05:34:02.880Z,55.30
2023-04-19T05:36:29.374Z,55.30
2023-04-19T05:38:55.846Z,55.30
2023-04-19T05:41:22.328Z,55.30
2023-04-19T05:43:49.129Z,55.40
2023-04-19T05:46:15.617Z,55.40
2023-04-19T05:48:42.108Z,55.30
2023-04-19T05:51:08.594Z,55.30
2023-04-19T05:53:35.061Z,55.10
2023-04-19T05:56:01.546Z,55.10
2023-04-19T05:58:28.078Z,55.20
2023-04-19T06:00:54.601Z,55.30
2023-04-19T06:03:21.200Z,55.10
2023-04-19T06:05:47.836Z,55.10
2023-04-19T06:08:14.361Z,55.00
2023-04-19T06:10:54.130Z,55.40
2023-04-19T06:13:23.377Z,54.60
2023-04-19T06:15:49.882Z,54.80
2023-04-19T06:18:19.729Z,54.70
2023-04-19T06:20:46.662Z,54.60
2023-04-19T06:23:13.161Z,54.60
2023-04-19T06:25:39.655Z,54.40
2023-04-19T06:28:06.151Z,54.30
2023-04-19T06:30:32.669Z,54.30
2023-04-19T06:32:59.200Z,54.10
2023-04-19T06:35:25.723Z,54.10
2023-04-19T06:37:52.262Z,54.20
2023-04-19T06:40:18.779Z,54.00
2023-04-19T06:42:45.276Z,54.10
2023-04-19T06:45:11.786Z,54.00
2023-04-19T06:47:40.435Z,53.80
2023-04-19T06:50:06.939Z,53.70
2023-04-19T06:52:33.405Z,53.90
2023-04-19T06:54:59.908Z,53.60
2023-04-19T06:57:26.361Z,53.70
2023-04-19T06:59:52.857Z,53.50
2023-04-19T07:02:19.383Z,53.40
2023-04-19T07:04:46.078Z,53.40
2023-04-19T07:07:12.647Z,53.30
2023-04-19T07:09:39.116Z,53.30
2023-04-19T07:12:05.594Z,53.00
2023-04-19T07:14:32.073Z,52.90
2023-04-19T07:16:58.534Z,52.80
2023-04-19T07:19:25.010Z,52.80
2023-04-19T07:21:51.529Z,52.80
2023-04-19T07:24:18.297Z,52.60
2023-04-19T07:26:45.010Z,52.90
2023-04-19T07:29:13.803Z,52.60
2023-04-19T07:31:40.277Z,52.60
2023-04-19T07:34:06.792Z,52.40
2023-04-19T07:36:33.262Z,52.20
2023-04-19T07:39:00.025Z,52.30
2023-04-19T07:41:26.545Z,52.40
2023-04-19T07:43:53.046Z,52.10
2023-04-19T07:46:19.577Z,52.20
2023-04-19T07:48:46.094Z,52.10
2023-04-19T07:51:12.592Z,52.20
2023-04-19T07:53:39.072Z,52.20
2023-04-19T07:56:05.560Z,52.10
2023-04-19T07:58:32.144Z,52.00
2023-04-19T08:00:58.632Z,52.00
2023-04-19T08:03:25.415Z,51.90
2023-04-19T08:05:52.167Z,51.90
2023-04-19T08:08:18.852Z,51.70
2023-04-19T08:10:45.356Z,51.70
2023-04-19T08:13:11.816Z,51.50
2023-04-19T08:16:18.013Z,51.50
2023-04-19T08:18:24.827Z,51.40
2023-04-19T08:20:51.358Z,51.60
2023-04-19T08:23:22.844Z,51.30
2023-04-19T08:25:52.449Z,51.30
2023-04-19T08:28:18.969Z,51.30
2023-04-19T08:30:46.583Z,51.30
2023-04-19T08:33:13.132Z,51.50
2023-04-19T08:35:39.646Z,51.20
2023-04-19T08:38:06.124Z,51.10
2023-04-19T08:40:32.618Z,51.10
2023-04-19T08:42:59.077Z,51.40
2023-04-19T08:45:28.255Z,51.40
2023-04-19T08:48:00.517Z,50.90
2023-04-19T08:50:35.439Z,51.10
2023-04-19T08:53:21.045Z,50.90
2023-04-19T08:58:32.916Z,51.50
2023-04-19T09:01:06.878Z,50.70
2023-04-19T09:03:38.502Z,50.70
2023-04-19T09:06:10.658Z,51.00
2023-04-19T09:08:37.195Z,51.00
2023-04-19T09:11:03.680Z,51.20
2023-04-19T09:13:30.155Z,51.30
2023-04-19T09:15:56.680Z,51.50
2023-04-19T09:18:23.169Z,51.50
2023-04-19T09:20:49.661Z,51.00
2023-04-19T09:23:16.140Z,50.50
2023-04-19T09:26:11.232Z,50.90
2023-04-19T09:28:29.060Z,51.10
2023-04-19T09:31:05.774Z,51.30
2023-04-19T09:33:42.023Z,51.30
2023-04-19T09:36:08.569Z,51.30
2023-04-19T09:38:35.062Z,51.30
2023-04-19T09:41:01.566Z,51.40
2023-04-19T09:43:55.749Z,51.90
2023-04-19T09:46:14.490Z,51.20
2023-04-19T09:48:40.999Z,51.60
2023-04-19T09:51:10.486Z,50.30
2023-04-19T09:53:39.396Z,51.10
2023-04-19T09:56:05.879Z,50.90
2023-04-19T09:58:46.521Z,51.10
2023-04-19T10:01:16.967Z,51.00
2023-04-19T10:03:44.127Z,50.60
2023-04-19T10:06:19.428Z,50.90
2023-04-19T10:08:57.276Z,50.80
2023-04-19T10:11:23.783Z,51.20
2023-04-19T10:13:50.263Z,50.60
2023-04-19T10:16:20.286Z,50.80
2023-04-19T10:18:47.094Z,50.40
2023-04-19T10:21:13.616Z,50.40
2023-04-19T10:23:40.084Z,50.60
2023-04-19T10:26:06.584Z,50.10
2023-04-19T10:28:33.054Z,50.70
2023-04-19T10:30:59.543Z,50.90
2023-04-19T10:33:32.236Z,50.20
2023-04-19T10:35:58.838Z,50.30
2023-04-19T10:38:25.335Z,50.60
2023-04-19T10:40:51.800Z,50.40
2023-04-19T10:43:18.264Z,50.50
2023-04-19T10:45:44.760Z,49.70
2023-04-19T10:48:11.310Z,50.10
2023-04-19T10:50:37.822Z,50.20
2023-04-19T10:53:04.295Z,50.10
2023-04-19T10:55:30.770Z,49.70
2023-04-19T10:57:57.244Z,50.20
2023-04-19T11:00:23.705Z,50.00
2023-04-19T11:02:50.397Z,50.10
2023-04-19T11:05:18.388Z,50.10
2023-04-19T11:07:46.267Z,50.10
2023-04-19T11:10:12.965Z,50.00
2023-04-19T11:12:39.591Z,50.00
2023-04-19T11:15:06.098Z,50.00
2023-04-19T11:17:32.717Z,50.00
2023-04-19T11:19:59.311Z,50.00
2023-04-19T11:22:25.810Z,49.90
2023-04-19T11:24:52.278Z,49.70
2023-04-19T11:27:18.768Z,49.80
2023-04-19T11:29:45.251Z,49.70
2023-04-19T11:32:11.738Z,49.70
2023-04-19T11:34:38.231Z,49.80
2023-04-19T11:37:04.741Z,49.70
2023-04-19T11:39:31.228Z,49.70
2023-04-19T11:41:57.689Z,49.60
2023-04-19T11:44:24.176Z,49.40
2023-04-19T11:46:50.677Z,49.60
2023-04-19T11:49:17.178Z,49.50
2023-04-19T11:51:43.646Z,49.60
2023-04-19T11:54:10.123Z,49.80
2023-04-19T11:56:36.601Z,49.60
2023-04-19T11:59:03.090Z,49.70
2023-04-19T12:01:29.632Z,49.50
2023-04-19T12:03:56.229Z,49.70
2023-04-19T12:06:22.856Z,49.60
2023-04-19T12:08:49.351Z,49.50
2023-04-19T12:11:15.813Z,49.50
2023-04-19T12:13:42.297Z,49.60
2023-04-19T12:16:08.877Z,49.70
2023-04-19T12:18:35.445Z,49.50
2023-04-19T12:21:01.906Z,49.50
2023-04-19T12:23:28.378Z,49.50
2023-04-19T12:25:54.851Z,49.60
2023-04-19T12:28:21.328Z,49.60
2023-04-19T12:30:47.794Z,49.60
2023-04-19T12:33:14.284Z,49.40
2023-04-19T12:35:40.757Z,49.50
2023-04-19T12:38:07.266Z,49.40
2023-04-19T12:40:33.749Z,49.50
2023-04-19T12:43:00.226Z,49.60
2023-04-19T12:45:26.701Z,49.50
2023-04-19T12:47:53.214Z,49.50
2023-04-19T12:50:19.760Z,49.50
2023-04-19T12:52:46.264Z,49.50
2023-04-19T12:55:12.774Z,49.40
2023-04-19T12:57:39.253Z,49.60
2023-04-19T13:00:06.001Z,49.50
2023-04-19T13:02:32.653Z,49.40
2023-04-19T13:04:59.289Z,49.30
2023-04-19T13:07:25.846Z,49.50
2023-04-19T13:09:52.702Z,49.30
2023-04-19T13:12:19.729Z,49.50
2023-04-19T13:14:46.204Z,49.50
2023-04-19T13:17:12.698Z,49.30
2023-04-19T13:19:39.161Z,49.30
2023-04-19T13:22:05.624Z,49.40
2023-04-19T13:24:32.104Z,49.20
2023-04-19T13:26:58.616Z,49.40
2023-04-19T13:29:25.099Z,49.40
2023-04-19T13:31:51.666Z,49.10
2023-04-19T13:34:18.461Z,49.20
2023-04-19T13:36:45.108Z,49.40
2023-04-19T13:39:11.732Z,49.30
2023-04-19T13:41:38.246Z,49.20
2023-04-19T13:44:04.735Z,49.20
2023-04-19T13:46:31.255Z,49.10
2023-04-19T13:48:57.777Z,49.00
2023-04-19T13:51:24.236Z,49.00
2023-04-19T13:53:50.717Z,48.80
2023-04-19T13:56:17.194Z,48.80
2023-04-19T13:58:43.676Z,48.80
2023-04-19T14:01:10.202Z,48.90
2023-04-19T14:03:36.967Z,48.80
2023-04-19T14:06:03.533Z,48.80
2023-04-19T14:08:30.020Z,48.70
2023-04-19T14:10:56.486Z,48.70
2023-04-19T14:13:22.961Z,48.60
2023-04-19T14:15:49.442Z,48.50
2023-04-19T14:18:15.911Z,48.40
2023-04-19T14:20:42.430Z,48.10
2023-04-19T14:23:08.914Z,48.10
2023-04-19T14:25:35.379Z,48.30
2023-04-19T14:28:01.853Z,48.10
2023-04-19T14:30:29.407Z,48.10
2023-04-19T14:32:57.609Z,48.00
2023-04-19T14:35:24.146Z,48.00
2023-04-19T14:37:50.611Z,47.60
2023-04-19T14:40:17.073Z,47.50
2023-04-19T14:42:43.642Z,47.40
2023-04-19T14:45:10.114Z,47.40
2023-04-19T14:47:36.644Z,47.40
2023-04-19T14:50:03.227Z,47.20
2023-04-19T14:52:29.739Z,47.40
2023-04-19T14:54:56.235Z,47.30
2023-04-19T14:57:22.705Z,47.10
2023-04-19T14:59:49.190Z,47.00
2023-04-19T15:02:15.782Z,46.80
2023-04-19T15:04:42.750Z,46.80
2023-04-19T15:07:09.490Z,46.80
2023-04-19T15:09:36.006Z,47.60
2023-04-19T15:12:02.489Z,46.80
2023-04-19T15:14:28.981Z,47.20
2023-04-19T15:16:55.442Z,47.10
2023-04-19T15:19:21.922Z,47.20
2023-04-19T15:21:48.404Z,46.90
2023-04-19T15:24:14.870Z,46.90
2023-04-19T15:26:44.088Z,46.70
2023-04-19T15:29:10.928Z,46.80
2023-04-19T15:31:37.448Z,46.70
2023-04-19T15:34:03.949Z,46.50
2023-04-19T15:36:30.418Z,46.60
2023-04-19T15:38:56.873Z,46.70
2023-04-19T15:41:23.344Z,47.60
2023-04-19T15:43:49.813Z,46.80
2023-04-19T15:46:16.458Z,46.90
2023-04-19T15:48:43.041Z,46.80
2023-04-19T15:51:09.519Z,46.80
2023-04-19T15:53:36.006Z,46.80
2023-04-19T15:56:02.515Z,46.90
2023-04-19T15:58:29.004Z,47.00
2023-04-19T16:00:55.501Z,46.90
2023-04-19T16:03:22.167Z,46.80
2023-04-19T16:05:48.830Z,46.80
2023-04-19T16:08:15.278Z,46.90
2023-04-19T16:10:41.822Z,46.90
2023-04-19T16:13:10.889Z,46.90
2023-04-19T16:15:37.353Z,46.70
2023-04-19T16:18:03.919Z,46.50
2023-04-19T16:20:30.510Z,46.50
2023-04-19T16:22:57.050Z,46.40
2023-04-19T16:25:23.525Z,46.50
2023-04-19T16:27:49.990Z,46.60
2023-04-19T16:30:16.495Z,46.60
2023-04-19T16:32:43.017Z,46.80
2023-04-19T16:35:09.522Z,46.60
2023-04-19T16:37:36.004Z,46.70
2023-04-19T16:40:02.500Z,46.70
2023-04-19T16:42:28.982Z,46.60
2023-04-19T16:44:55.458Z,46.70
2023-04-19T16:47:21.951Z,46.80
2023-04-19T16:49:48.435Z,46.70
2023-04-19T16:52:14.922Z,46.90
2023-04-19T16:54:41.395Z,47.00
2023-04-19T16:57:07.878Z,46.90
2023-04-19T16:59:34.348Z,47.00
2023-04-19T17:02:02.532Z,46.70
2023-04-19T17:04:29.642Z,46.80
2023-04-19T17:06:56.411Z,46.70
2023-04-19T17:09:22.904Z,47.00
2023-04-19T17:11:49.385Z,46.90
2023-04-19T17:14:16.069Z,46.90
2023-04-19T17:16:42.749Z,46.80
2023-04-19T17:19:09.228Z,46.90
2023-04-19T17:21:35.727Z,47.00
2023-04-19T17:24:02.190Z,46.80
2023-04-19T17:26:28.682Z,46.90
2023-04-19T17:28:55.165Z,46.90
2023-04-19T17:31:21.717Z,46.90
2023-04-19T17:33:48.211Z,46.80
2023-04-19T17:36:14.693Z,46.70
2023-04-19T17:38:41.173Z,46.70
2023-04-19T17:41:07.649Z,46.60
2023-04-19T17:43:34.108Z,46.80
2023-04-19T17:46:00.577Z,46.90
2023-04-19T17:48:27.128Z,46.80
2023-04-19T17:50:53.600Z,47.00
2023-04-19T17:53:20.085Z,46.60
2023-04-19T17:55:46.568Z,46.60
2023-04-19T17:58:13.032Z,46.70
2023-04-19T18:00:39.502Z,46.70
2023-04-19T18:03:06.148Z,46.70
2023-04-19T18:05:32.713Z,46.50
2023-04-19T18:07:59.197Z,46.70
2023-04-19T18:10:25.680Z,46.50
2023-04-19T18:12:52.153Z,46.40
2023-04-19T18:15:18.623Z,46.70
2023-04-19T18:17:45.175Z,46.50
2023-04-19T18:20:13.682Z,46.60
2023-04-19T18:22:40.404Z,46.50
2023-04-19T18:25:06.898Z,46.50
2023-04-19T18:27:33.391Z,46.90
2023-04-19T18:29:59.861Z,46.70
2023-04-19T18:32:26.536Z,46.70
2023-04-19T18:34:53.102Z,46.80
2023-04-19T18:37:19.613Z,47.00
2023-04-19T18:39:46.070Z,46.80
2023-04-19T18:42:12.553Z,46.70
2023-04-19T18:44:52.836Z,46.80
2023-04-19T18:47:20.535Z,46.80
2023-04-19T18:50:02.728Z,46.90
2023-04-19T18:52:31.396Z,46.90
2023-04-19T18:54:57.904Z,47.00
2023-04-19T18:57:27.214Z,47.00
2023-04-19T18:59:54.406Z,47.00
2023-04-19T19:02:21.039Z,47.30
2023-04-19T19:04:55.892Z,47.40
2023-04-19T19:07:35.524Z,47.20
2023-04-19T19:10:09.630Z,47.50
2023-04-19T19:12:43.123Z,47.30
2023-04-19T19:15:09.585Z,47.40
2023-04-19T19:17:36.202Z,47.30
2023-04-19T19:20:02.755Z,47.30
2023-04-19T19:22:29.326Z,47.70
2023-04-19T19:24:55.862Z,47.60
2023-04-19T19:27:22.353Z,47.50
2023-04-19T19:29:48.836Z,47.30
2023-04-19T19:32:15.326Z,47.60
2023-04-19T19:34:51.752Z,47.30
2023-04-19T19:37:21.835Z,47.40
2023-04-19T19:39:48.407Z,47.00
2023-04-19T19:42:14.939Z,47.10
2023-04-19T19:44:41.429Z,47.50
2023-04-19T19:47:10.324Z,47.30
2023-04-19T19:49:51.883Z,47.70
2023-04-19T19:52:23.677Z,47.00
2023-04-19T19:54:50.170Z,47.00
2023-04-19T19:59:51.668Z,47.10
2023-04-19T20:02:22.188Z,47.40
2023-04-19T20:04:49.144Z,46.80
2023-04-19T20:09:45.328Z,46.70
2023-04-19T20:12:11.885Z,47.50
2023-04-19T20:14:38.383Z,47.20
2023-04-19T20:17:04.868Z,46.90
2023-04-19T20:19:31.472Z,47.20
2023-04-19T20:21:58.003Z,47.20
2023-04-19T20:24:24.486Z,47.00
2023-04-19T20:26:51.231Z,47.30
2023-04-19T20:29:17.982Z,46.90
2023-04-19T20:31:44.654Z,46.80
2023-04-19T20:34:11.158Z,46.70
2023-04-19T20:36:37.709Z,46.90
2023-04-19T20:39:05.990Z,46.90
2023-04-19T20:41:33.080Z,46.60
2023-04-19T20:43:59.551Z,46.80
2023-04-19T20:46:26.179Z,46.80
2023-04-19T20:48:52.777Z,46.40
2023-04-19T20:51:19.245Z,46.70
2023-04-19T20:53:45.709Z,46.50
2023-04-19T20:56:12.157Z,47.30
2023-04-19T20:58:38.624Z,46.30
2023-04-19T21:01:05.081Z,46.40
2023-04-19T21:03:31.754Z,46.80
2023-04-19T21:05:58.375Z,45.90
2023-04-19T21:08:24.879Z,46.40
2023-04-19T21:10:51.371Z,46.10
2023-04-19T21:13:17.855Z,46.10
2023-04-19T21:15:44.379Z,45.60
2023-04-19T21:18:11.143Z,45.90
2023-04-19T21:20:37.630Z,45.70
2023-04-19T21:23:04.123Z,45.80
2023-04-19T21:25:30.620Z,45.70
2023-04-19T21:27:57.089Z,45.70
2023-04-19T21:30:29.205Z,45.50
2023-04-19T21:32:55.706Z,45.20
2023-04-19T21:35:22.204Z,46.20
2023-04-19T21:37:48.705Z,45.60
2023-04-19T21:40:15.229Z,45.70
2023-04-19T21:42:41.728Z,45.80
2023-04-19T21:45:08.230Z,45.60
2023-04-19T21:47:34.724Z,45.00
2023-04-19T21:50:01.231Z,45.40
2023-04-19T21:52:27.723Z,44.20
2023-04-19T21:54:54.222Z,44.60
2023-04-19T21:57:20.692Z,45.10
2023-04-19T21:59:47.133Z,45.00
2023-04-19T22:02:13.714Z,44.40
2023-04-19T22:04:40.224Z,44.00
2023-04-19T22:07:06.691Z,44.00
2023-04-19T22:09:33.199Z,44.30
2023-04-19T22:11:59.658Z,44.10
2023-04-19T22:14:26.140Z,43.10
2023-04-19T22:16:52.809Z,43.90
2023-04-19T22:19:19.409Z,44.00
2023-04-19T22:21:45.903Z,44.10
2023-04-19T22:24:12.381Z,43.80
2023-04-19T22:26:38.844Z,43.80
2023-04-19T22:29:05.301Z,44.10
2023-04-19T22:31:31.813Z,43.40
2023-04-19T22:33:59.196Z,43.70
2023-04-19T22:36:25.684Z,44.00
2023-04-19T22:38:52.155Z,43.70
2023-04-19T22:41:23.247Z,43.90
2023-04-19T22:43:49.734Z,43.40
2023-04-19T22:46:16.270Z,44.00
2023-04-19T22:48:42.769Z,43.90
2023-04-19T22:51:09.231Z,43.40
2023-04-19T22:53:35.705Z,43.00
2023-04-19T22:56:02.174Z,42.90
2023-04-19T22:58:28.662Z,43.10
2023-04-19T23:00:55.252Z,43.40
2023-04-19T23:03:23.268Z,43.10
2023-04-19T23:05:49.786Z,43.00
2023-04-19T23:08:16.270Z,41.50
2023-04-19T23:10:42.759Z,42.20
2023-04-19T23:13:09.224Z,42.60
2023-04-19T23:15:35.727Z,43.00
2023-04-19T23:18:02.462Z,42.70
2023-04-19T23:20:29.070Z,42.50
2023-04-19T23:22:55.561Z,42.80
2023-04-19T23:25:22.029Z,42.40
2023-04-19T23:27:48.494Z,42.10
2023-04-19T23:30:14.991Z,42.50
2023-04-19T23:32:41.575Z,42.60
2023-04-19T23:35:08.068Z,42.70
2023-04-19T23:37:34.546Z,41.90
2023-04-19T23:40:01.024Z,42.70
2023-04-19T23:42:27.489Z,41.80
2023-04-19T23:44:53.956Z,42.40
2023-04-19T23:47:20.437Z,42.10
2023-04-19T23:49:46.949Z,41.80
2023-04-19T23:52:13.414Z,41.80
2023-04-19T23:54:39.889Z,42.10
2023-04-19T23:57:06.371Z,42.40
2023-04-19T23:59:32.840Z,41.30
